sensor_id;sensor_type;location;lat;lon;timestamp;P1;durP1;ratioP1;P2;durP2;ratioP2
42186;SDS011;27858;51.414;0.018;2023-01-04T00:01:10;14.23;;;2.67;;
42186;SDS011;27858;51.414;0.018;2023-01-04T00:03:38;5.88;;;2.17;;
42186;SDS011;27858;51.414;0.018;2023-01-04T00:06:06;11.82;;;2.75;;
42186;SDS011;27858;51.414;0.018;2023-01-04T00:08:34;8.43;;;2.53;;
42186;SDS011;27858;51.414;0.018;2023-01-04T00:11:02;4.28;;;1.50;;
42186;SDS011;27858;51.414;0.018;2023-01-04T00:13:31;7.78;;;1.58;;
42186;SDS011;27858;51.414;0.018;2023-01-04T00:15:58;10.30;;;3.03;;
42186;SDS011;27858;51.414;0.018;2023-01-04T00:18:34;8.70;;;2.22;;
42186;SDS011;27858;51.414;0.018;2023-01-04T00:23:42;5.63;;;1.63;;
42186;SDS011;27858;51.414;0.018;2023-01-04T00:26:12;7.95;;;1.92;;
42186;SDS011;27858;51.414;0.018;2023-01-04T00:28:40;3.30;;;1.30;;
42186;SDS011;27858;51.414;0.018;2023-01-04T00:31:15;9.30;;;1.60;;
42186;SDS011;27858;51.414;0.018;2023-01-04T00:33:42;5.72;;;1.60;;
42186;SDS011;27858;51.414;0.018;2023-01-04T00:36:10;5.97;;;2.08;;
42186;SDS011;27858;51.414;0.018;2023-01-04T00:38:38;9.75;;;2.42;;
42186;SDS011;27858;51.414;0.018;2023-01-04T00:41:06;7.75;;;1.85;;
42186;SDS011;27858;51.414;0.018;2023-01-04T00:43:53;4.90;;;0.88;;
42186;SDS011;27858;51.414;0.018;2023-01-04T00:46:20;8.13;;;1.85;;
42186;SDS011;27858;51.414;0.018;2023-01-04T00:48:46;7.38;;;1.40;;
42186;SDS011;27858;51.414;0.018;2023-01-04T00:51:14;14.57;;;1.83;;
42186;SDS011;27858;51.414;0.018;2023-01-04T00:53:41;5.50;;;1.42;;
42186;SDS011;27858;51.414;0.018;2023-01-04T00:56:07;7.68;;;1.98;;
42186;SDS011;27858;51.414;0.018;2023-01-04T00:58:34;9.65;;;2.03;;
42186;SDS011;27858;51.414;0.018;2023-01-04T01:01:04;7.07;;;2.47;;
42186;SDS011;27858;51.414;0.018;2023-01-04T01:03:32;2.92;;;1.10;;
42186;SDS011;27858;51.414;0.018;2023-01-04T01:06:04;13.73;;;1.60;;
42186;SDS011;27858;51.414;0.018;2023-01-04T01:08:33;6.75;;;1.73;;
42186;SDS011;27858;51.414;0.018;2023-01-04T01:11:04;6.65;;;1.60;;
42186;SDS011;27858;51.414;0.018;2023-01-04T01:13:35;7.63;;;1.90;;
42186;SDS011;27858;51.414;0.018;2023-01-04T01:16:07;8.82;;;1.90;;
42186;SDS011;27858;51.414;0.018;2023-01-04T01:18:39;6.60;;;1.77;;
42186;SDS011;27858;51.414;0.018;2023-01-04T01:21:09;8.15;;;1.92;;
42186;SDS011;27858;51.414;0.018;2023-01-04T01:23:41;5.13;;;1.40;;
42186;SDS011;27858;51.414;0.018;2023-01-04T01:26:10;9.32;;;2.13;;
42186;SDS011;27858;51.414;0.018;2023-01-04T01:28:39;6.60;;;1.98;;
42186;SDS011;27858;51.414;0.018;2023-01-04T01:31:06;6.38;;;2.00;;
42186;SDS011;27858;51.414;0.018;2023-01-04T01:33:38;6.57;;;2.22;;
42186;SDS011;27858;51.414;0.018;2023-01-04T01:36:06;4.25;;;2.03;;
42186;SDS011;27858;51.414;0.018;2023-01-04T01:38:34;23.00;;;2.95;;
42186;SDS011;27858;51.414;0.018;2023-01-04T01:41:02;6.05;;;1.58;;
42186;SDS011;27858;51.414;0.018;2023-01-04T01:46:15;14.05;;;3.03;;
42186;SDS011;27858;51.414;0.018;2023-01-04T01:48:53;8.77;;;2.13;;
42186;SDS011;27858;51.414;0.018;2023-01-04T01:51:24;7.32;;;2.35;;
42186;SDS011;27858;51.414;0.018;2023-01-04T01:53:54;11.45;;;2.38;;
42186;SDS011;27858;51.414;0.018;2023-01-04T01:56:37;5.53;;;2.22;;
42186;SDS011;27858;51.414;0.018;2023-01-04T01:59:05;7.70;;;1.95;;
42186;SDS011;27858;51.414;0.018;2023-01-04T02:01:33;10.05;;;2.28;;
42186;SDS011;27858;51.414;0.018;2023-01-04T02:04:00;10.18;;;2.03;;
42186;SDS011;27858;51.414;0.018;2023-01-04T02:06:28;10.60;;;2.88;;
42186;SDS011;27858;51.414;0.018;2023-01-04T02:08:58;10.20;;;3.00;;
42186;SDS011;27858;51.414;0.018;2023-01-04T02:11:27;13.00;;;2.90;;
42186;SDS011;27858;51.414;0.018;2023-01-04T02:13:54;17.30;;;2.92;;
42186;SDS011;27858;51.414;0.018;2023-01-04T02:27:43;13.43;;;2.22;;
42186;SDS011;27858;51.414;0.018;2023-01-04T02:33:09;15.82;;;2.83;;
42186;SDS011;27858;51.414;0.018;2023-01-04T02:39:12;9.88;;;1.90;;
42186;SDS011;27858;51.414;0.018;2023-01-04T02:42:46;8.95;;;1.50;;
42186;SDS011;27858;51.414;0.018;2023-01-04T02:44:58;7.90;;;2.35;;
42186;SDS011;27858;51.414;0.018;2023-01-04T02:47:30;7.90;;;2.85;;
42186;SDS011;27858;51.414;0.018;2023-01-04T02:50:53;8.48;;;2.50;;
42186;SDS011;27858;51.414;0.018;2023-01-04T02:53:20;9.70;;;3.17;;
42186;SDS011;27858;51.414;0.018;2023-01-04T03:04:30;18.17;;;3.28;;
42186;SDS011;27858;51.414;0.018;2023-01-04T03:10:24;9.23;;;2.47;;
42186;SDS011;27858;51.414;0.018;2023-01-04T03:13:15;7.00;;;2.17;;
42186;SDS011;27858;51.414;0.018;2023-01-04T03:15:45;14.68;;;2.75;;
42186;SDS011;27858;51.414;0.018;2023-01-04T03:18:21;6.78;;;2.28;;
42186;SDS011;27858;51.414;0.018;2023-01-04T03:20:53;7.22;;;1.98;;
42186;SDS011;27858;51.414;0.018;2023-01-04T03:23:23;11.95;;;2.90;;
42186;SDS011;27858;51.414;0.018;2023-01-04T03:26:14;4.50;;;1.77;;
42186;SDS011;27858;51.414;0.018;2023-01-04T03:29:06;20.40;;;2.25;;
42186;SDS011;27858;51.414;0.018;2023-01-04T03:32:01;4.53;;;2.13;;
42186;SDS011;27858;51.414;0.018;2023-01-04T03:34:50;9.73;;;1.80;;
42186;SDS011;27858;51.414;0.018;2023-01-04T03:37:48;7.82;;;1.65;;
42186;SDS011;27858;51.414;0.018;2023-01-04T03:40:43;5.43;;;1.88;;
42186;SDS011;27858;51.414;0.018;2023-01-04T03:43:40;7.40;;;2.03;;
42186;SDS011;27858;51.414;0.018;2023-01-04T03:46:37;5.17;;;1.37;;
42186;SDS011;27858;51.414;0.018;2023-01-04T03:49:40;8.80;;;1.35;;
42186;SDS011;27858;51.414;0.018;2023-01-04T03:52:13;4.15;;;2.05;;
42186;SDS011;27858;51.414;0.018;2023-01-04T03:54:43;9.73;;;2.33;;
42186;SDS011;27858;51.414;0.018;2023-01-04T03:57:12;5.10;;;1.10;;
42186;SDS011;27858;51.414;0.018;2023-01-04T03:59:42;6.35;;;1.10;;
42186;SDS011;27858;51.414;0.018;2023-01-04T04:02:14;4.90;;;1.15;;
42186;SDS011;27858;51.414;0.018;2023-01-04T04:04:44;3.50;;;1.67;;
42186;SDS011;27858;51.414;0.018;2023-01-04T04:07:30;3.88;;;1.00;;
42186;SDS011;27858;51.414;0.018;2023-01-04T04:10:16;4.95;;;1.17;;
42186;SDS011;27858;51.414;0.018;2023-01-04T04:12:42;2.63;;;0.80;;
42186;SDS011;27858;51.414;0.018;2023-01-04T04:15:09;2.90;;;0.98;;
42186;SDS011;27858;51.414;0.018;2023-01-04T04:17:36;15.82;;;1.58;;
42186;SDS011;27858;51.414;0.018;2023-01-04T04:20:03;3.50;;;1.13;;
42186;SDS011;27858;51.414;0.018;2023-01-04T04:22:30;3.50;;;1.20;;
42186;SDS011;27858;51.414;0.018;2023-01-04T04:24:57;5.18;;;1.42;;
42186;SDS011;27858;51.414;0.018;2023-01-04T04:27:24;4.00;;;1.20;;
42186;SDS011;27858;51.414;0.018;2023-01-04T04:29:51;8.23;;;1.00;;
42186;SDS011;27858;51.414;0.018;2023-01-04T04:32:18;3.17;;;0.80;;
42186;SDS011;27858;51.414;0.018;2023-01-04T04:34:45;3.00;;;0.82;;
42186;SDS011;27858;51.414;0.018;2023-01-04T04:37:11;3.78;;;1.10;;
42186;SDS011;27858;51.414;0.018;2023-01-04T04:39:38;1.70;;;0.50;;
42186;SDS011;27858;51.414;0.018;2023-01-04T04:42:05;2.85;;;1.10;;
42186;SDS011;27858;51.414;0.018;2023-01-04T04:44:32;1.70;;;0.77;;
42186;SDS011;27858;51.414;0.018;2023-01-04T04:47:00;3.88;;;1.08;;
42186;SDS011;27858;51.414;0.018;2023-01-04T04:49:27;5.43;;;1.42;;
42186;SDS011;27858;51.414;0.018;2023-01-04T04:51:55;3.25;;;0.63;;
42186;SDS011;27858;51.414;0.018;2023-01-04T04:54:22;3.92;;;0.93;;
42186;SDS011;27858;51.414;0.018;2023-01-04T04:56:49;5.40;;;1.10;;
42186;SDS011;27858;51.414;0.018;2023-01-04T04:59:16;7.75;;;1.35;;
42186;SDS011;27858;51.414;0.018;2023-01-04T05:01:42;3.42;;;1.52;;
42186;SDS011;27858;51.414;0.018;2023-01-04T05:04:09;3.38;;;1.02;;
42186;SDS011;27858;51.414;0.018;2023-01-04T05:06:42;4.07;;;0.90;;
42186;SDS011;27858;51.414;0.018;2023-01-04T05:09:10;2.20;;;1.40;;
42186;SDS011;27858;51.414;0.018;2023-01-04T05:11:41;2.03;;;1.08;;
42186;SDS011;27858;51.414;0.018;2023-01-04T05:14:26;3.25;;;1.25;;
42186;SDS011;27858;51.414;0.018;2023-01-04T05:16:53;8.38;;;1.70;;
42186;SDS011;27858;51.414;0.018;2023-01-04T05:19:20;2.13;;;0.95;;
42186;SDS011;27858;51.414;0.018;2023-01-04T05:21:47;2.83;;;1.38;;
42186;SDS011;27858;51.414;0.018;2023-01-04T05:24:14;9.95;;;1.50;;
42186;SDS011;27858;51.414;0.018;2023-01-04T05:26:41;6.22;;;1.77;;
42186;SDS011;27858;51.414;0.018;2023-01-04T05:29:07;7.93;;;2.15;;
42186;SDS011;27858;51.414;0.018;2023-01-04T05:31:54;11.98;;;1.83;;
42186;SDS011;27858;51.414;0.018;2023-01-04T05:34:21;4.07;;;1.42;;
42186;SDS011;27858;51.414;0.018;2023-01-04T05:36:48;6.80;;;1.85;;
42186;SDS011;27858;51.414;0.018;2023-01-04T05:39:15;6.40;;;1.55;;
42186;SDS011;27858;51.414;0.018;2023-01-04T05:41:41;4.32;;;1.35;;
42186;SDS011;27858;51.414;0.018;2023-01-04T05:44:27;6.70;;;1.35;;
42186;SDS011;27858;51.414;0.018;2023-01-04T05:46:53;6.10;;;1.58;;
42186;SDS011;27858;51.414;0.018;2023-01-04T05:49:20;10.05;;;1.55;;
42186;SDS011;27858;51.414;0.018;2023-01-04T05:51:47;10.20;;;1.40;;
42186;SDS011;27858;51.414;0.018;2023-01-04T05:54:14;5.47;;;1.63;;
42186;SDS011;27858;51.414;0.018;2023-01-04T05:56:46;6.50;;;1.60;;
42186;SDS011;27858;51.414;0.018;2023-01-04T05:59:13;9.32;;;2.80;;
42186;SDS011;27858;51.414;0.018;2023-01-04T06:01:41;7.97;;;1.88;;
42186;SDS011;27858;51.414;0.018;2023-01-04T06:04:08;5.70;;;2.33;;
42186;SDS011;27858;51.414;0.018;2023-01-04T06:06:35;9.00;;;2.53;;
42186;SDS011;27858;51.414;0.018;2023-01-04T06:09:01;2.42;;;1.30;;
42186;SDS011;27858;51.414;0.018;2023-01-04T06:11:28;12.45;;;2.65;;
42186;SDS011;27858;51.414;0.018;2023-01-04T06:13:55;8.23;;;2.00;;
42186;SDS011;27858;51.414;0.018;2023-01-04T06:16:22;7.10;;;1.25;;
42186;SDS011;27858;51.414;0.018;2023-01-04T06:18:49;5.43;;;1.55;;
42186;SDS011;27858;51.414;0.018;2023-01-04T06:21:16;6.00;;;2.00;;
42186;SDS011;27858;51.414;0.018;2023-01-04T06:23:43;6.47;;;1.50;;
42186;SDS011;27858;51.414;0.018;2023-01-04T06:26:09;7.75;;;1.73;;
42186;SDS011;27858;51.414;0.018;2023-01-04T06:28:36;3.67;;;1.40;;
42186;SDS011;27858;51.414;0.018;2023-01-04T06:31:06;5.93;;;1.90;;
42186;SDS011;27858;51.414;0.018;2023-01-04T06:33:34;8.80;;;1.90;;
42186;SDS011;27858;51.414;0.018;2023-01-04T06:36:02;5.07;;;2.03;;
42186;SDS011;27858;51.414;0.018;2023-01-04T06:38:29;4.70;;;1.30;;
42186;SDS011;27858;51.414;0.018;2023-01-04T06:40:57;4.97;;;1.35;;
42186;SDS011;27858;51.414;0.018;2023-01-04T06:43:23;9.63;;;3.40;;
42186;SDS011;27858;51.414;0.018;2023-01-04T06:45:50;10.48;;;2.45;;
42186;SDS011;27858;51.414;0.018;2023-01-04T06:48:17;3.28;;;1.27;;
42186;SDS011;27858;51.414;0.018;2023-01-04T06:50:44;3.00;;;1.10;;
42186;SDS011;27858;51.414;0.018;2023-01-04T06:53:10;4.10;;;0.80;;
42186;SDS011;27858;51.414;0.018;2023-01-04T06:55:37;7.43;;;1.63;;
42186;SDS011;27858;51.414;0.018;2023-01-04T06:58:04;5.53;;;2.17;;
42186;SDS011;27858;51.414;0.018;2023-01-04T07:00:31;5.78;;;1.25;;
42186;SDS011;27858;51.414;0.018;2023-01-04T07:02:57;3.17;;;0.90;;
42186;SDS011;27858;51.414;0.018;2023-01-04T07:05:40;10.20;;;1.15;;
42186;SDS011;27858;51.414;0.018;2023-01-04T07:08:07;5.47;;;0.85;;
42186;SDS011;27858;51.414;0.018;2023-01-04T07:10:35;5.60;;;1.70;;
42186;SDS011;27858;51.414;0.018;2023-01-04T07:13:02;10.88;;;1.65;;
42186;SDS011;27858;51.414;0.018;2023-01-04T07:15:29;6.13;;;1.75;;
42186;SDS011;27858;51.414;0.018;2023-01-04T07:18:05;5.55;;;1.83;;
42186;SDS011;27858;51.414;0.018;2023-01-04T07:20:33;6.28;;;1.73;;
42186;SDS011;27858;51.414;0.018;2023-01-04T07:23:01;3.38;;;1.55;;
42186;SDS011;27858;51.414;0.018;2023-01-04T07:25:27;5.35;;;1.48;;
42186;SDS011;27858;51.414;0.018;2023-01-04T07:27:54;5.28;;;1.48;;
42186;SDS011;27858;51.414;0.018;2023-01-04T07:30:21;3.83;;;1.33;;
42186;SDS011;27858;51.414;0.018;2023-01-04T07:32:52;3.88;;;1.33;;
42186;SDS011;27858;51.414;0.018;2023-01-04T07:35:20;6.45;;;2.17;;
42186;SDS011;27858;51.414;0.018;2023-01-04T07:37:48;4.30;;;1.40;;
42186;SDS011;27858;51.414;0.018;2023-01-04T07:40:23;3.75;;;1.42;;
42186;SDS011;27858;51.414;0.018;2023-01-04T07:42:54;8.73;;;2.17;;
42186;SDS011;27858;51.414;0.018;2023-01-04T07:45:22;2.15;;;1.55;;
42186;SDS011;27858;51.414;0.018;2023-01-04T07:47:49;3.88;;;1.52;;
42186;SDS011;27858;51.414;0.018;2023-01-04T07:50:16;6.68;;;1.83;;
42186;SDS011;27858;51.414;0.018;2023-01-04T07:52:43;5.25;;;1.10;;
42186;SDS011;27858;51.414;0.018;2023-01-04T07:55:10;4.97;;;2.10;;
42186;SDS011;27858;51.414;0.018;2023-01-04T07:57:37;6.75;;;1.13;;
42186;SDS011;27858;51.414;0.018;2023-01-04T08:00:03;1.95;;;0.73;;
42186;SDS011;27858;51.414;0.018;2023-01-04T08:02:31;6.38;;;1.17;;
42186;SDS011;27858;51.414;0.018;2023-01-04T08:04:58;4.70;;;0.63;;
42186;SDS011;27858;51.414;0.018;2023-01-04T08:07:25;1.92;;;0.90;;
42186;SDS011;27858;51.414;0.018;2023-01-04T08:09:52;3.05;;;0.90;;
42186;SDS011;27858;51.414;0.018;2023-01-04T08:12:19;4.85;;;0.88;;
42186;SDS011;27858;51.414;0.018;2023-01-04T08:14:45;2.95;;;1.10;;
42186;SDS011;27858;51.414;0.018;2023-01-04T08:17:12;7.40;;;0.93;;
42186;SDS011;27858;51.414;0.018;2023-01-04T08:19:39;7.55;;;1.98;;
42186;SDS011;27858;51.414;0.018;2023-01-04T08:22:05;3.63;;;0.90;;
42186;SDS011;27858;51.414;0.018;2023-01-04T08:24:32;3.28;;;0.90;;
42186;SDS011;27858;51.414;0.018;2023-01-04T08:26:59;8.18;;;1.92;;
42186;SDS011;27858;51.414;0.018;2023-01-04T08:29:26;6.50;;;2.03;;
42186;SDS011;27858;51.414;0.018;2023-01-04T08:31:59;5.82;;;1.60;;
42186;SDS011;27858;51.414;0.018;2023-01-04T08:34:26;3.47;;;0.82;;
42186;SDS011;27858;51.414;0.018;2023-01-04T08:36:54;4.18;;;1.27;;
42186;SDS011;27858;51.414;0.018;2023-01-04T08:39:21;5.95;;;1.35;;
42186;SDS011;27858;51.414;0.018;2023-01-04T08:41:48;3.58;;;1.20;;
42186;SDS011;27858;51.414;0.018;2023-01-04T08:44:27;6.68;;;1.08;;
42186;SDS011;27858;51.414;0.018;2023-01-04T08:46:54;2.22;;;1.27;;
42186;SDS011;27858;51.414;0.018;2023-01-04T08:49:21;2.47;;;1.95;;
42186;SDS011;27858;51.414;0.018;2023-01-04T08:51:49;3.65;;;1.42;;
42186;SDS011;27858;51.414;0.018;2023-01-04T08:54:16;7.60;;;0.90;;
42186;SDS011;27858;51.414;0.018;2023-01-04T08:56:44;6.97;;;1.52;;
42186;SDS011;27858;51.414;0.018;2023-01-04T08:59:11;5.70;;;1.20;;
42186;SDS011;27858;51.414;0.018;2023-01-04T09:01:39;5.68;;;1.20;;
42186;SDS011;27858;51.414;0.018;2023-01-04T09:04:07;4.70;;;1.42;;
42186;SDS011;27858;51.414;0.018;2023-01-04T09:06:34;5.13;;;1.63;;
42186;SDS011;27858;51.414;0.018;2023-01-04T09:09:02;2.55;;;0.98;;
42186;SDS011;27858;51.414;0.018;2023-01-04T09:11:29;5.35;;;1.98;;
42186;SDS011;27858;51.414;0.018;2023-01-04T09:13:57;5.95;;;1.45;;
42186;SDS011;27858;51.414;0.018;2023-01-04T09:16:34;5.93;;;1.63;;
42186;SDS011;27858;51.414;0.018;2023-01-04T09:19:02;4.75;;;1.63;;
42186;SDS011;27858;51.414;0.018;2023-01-04T09:21:30;6.50;;;1.40;;
42186;SDS011;27858;51.414;0.018;2023-01-04T09:23:57;8.10;;;2.05;;
42186;SDS011;27858;51.414;0.018;2023-01-04T09:26:24;8.32;;;1.88;;
42186;SDS011;27858;51.414;0.018;2023-01-04T09:28:52;13.82;;;3.17;;
42186;SDS011;27858;51.414;0.018;2023-01-04T09:31:21;5.20;;;1.10;;
42186;SDS011;27858;51.414;0.018;2023-01-04T09:33:50;7.30;;;1.75;;
42186;SDS011;27858;51.414;0.018;2023-01-04T09:36:37;6.35;;;2.15;;
42186;SDS011;27858;51.414;0.018;2023-01-04T09:39:04;6.10;;;1.70;;
42186;SDS011;27858;51.414;0.018;2023-01-04T09:41:34;4.72;;;2.13;;
42186;SDS011;27858;51.414;0.018;2023-01-04T09:46:40;4.65;;;1.52;;
42186;SDS011;27858;51.414;0.018;2023-01-04T09:49:13;48.90;;;3.83;;
42186;SDS011;27858;51.414;0.018;2023-01-04T09:51:47;11.23;;;1.67;;
42186;SDS011;27858;51.414;0.018;2023-01-04T09:54:18;5.80;;;1.40;;
42186;SDS011;27858;51.414;0.018;2023-01-04T09:56:49;5.85;;;1.98;;
42186;SDS011;27858;51.414;0.018;2023-01-04T09:59:19;7.18;;;2.17;;
42186;SDS011;27858;51.414;0.018;2023-01-04T10:02:07;6.32;;;1.90;;
42186;SDS011;27858;51.414;0.018;2023-01-04T10:04:47;6.32;;;2.20;;
42186;SDS011;27858;51.414;0.018;2023-01-04T10:07:31;5.68;;;2.08;;
42186;SDS011;27858;51.414;0.018;2023-01-04T10:09:59;5.82;;;2.58;;
42186;SDS011;27858;51.414;0.018;2023-01-04T10:20:59;5.97;;;1.50;;
42186;SDS011;27858;51.414;0.018;2023-01-04T10:24:43;9.20;;;3.13;;
42186;SDS011;27858;51.414;0.018;2023-01-04T10:26:46;11.50;;;2.97;;
42186;SDS011;27858;51.414;0.018;2023-01-04T10:29:35;9.32;;;1.80;;
42186;SDS011;27858;51.414;0.018;2023-01-04T10:32:15;9.63;;;2.20;;
42186;SDS011;27858;51.414;0.018;2023-01-04T10:34:59;9.43;;;1.80;;
42186;SDS011;27858;51.414;0.018;2023-01-04T10:37:32;5.10;;;1.65;;
42186;SDS011;27858;51.414;0.018;2023-01-04T10:40:09;8.07;;;1.92;;
42186;SDS011;27858;51.414;0.018;2023-01-04T10:42:45;11.30;;;3.22;;
42186;SDS011;27858;51.414;0.018;2023-01-04T10:45:21;7.97;;;2.13;;
42186;SDS011;27858;51.414;0.018;2023-01-04T10:50:56;9.10;;;3.38;;
42186;SDS011;27858;51.414;0.018;2023-01-04T10:56:38;11.55;;;2.72;;
42186;SDS011;27858;51.414;0.018;2023-01-04T11:12:52;5.07;;;1.88;;
42186;SDS011;27858;51.414;0.018;2023-01-04T11:15:19;8.23;;;1.92;;
42186;SDS011;27858;51.414;0.018;2023-01-04T11:17:46;6.47;;;2.72;;
42186;SDS011;27858;51.414;0.018;2023-01-04T11:20:14;7.95;;;1.88;;
42186;SDS011;27858;51.414;0.018;2023-01-04T11:22:50;9.35;;;2.63;;
42186;SDS011;27858;51.414;0.018;2023-01-04T11:25:21;13.73;;;2.67;;
42186;SDS011;27858;51.414;0.018;2023-01-04T11:28:05;8.57;;;1.83;;
42186;SDS011;27858;51.414;0.018;2023-01-04T11:30:45;19.52;;;2.28;;
42186;SDS011;27858;51.414;0.018;2023-01-04T11:33:23;9.77;;;2.30;;
42186;SDS011;27858;51.414;0.018;2023-01-04T11:38:23;7.90;;;2.10;;
42186;SDS011;27858;51.414;0.018;2023-01-04T11:43:28;7.60;;;1.58;;
42186;SDS011;27858;51.414;0.018;2023-01-04T11:46:00;8.20;;;2.63;;
42186;SDS011;27858;51.414;0.018;2023-01-04T11:51:14;17.52;;;2.85;;
42186;SDS011;27858;51.414;0.018;2023-01-04T11:53:43;18.55;;;4.25;;
42186;SDS011;27858;51.414;0.018;2023-01-04T11:56:12;5.97;;;1.90;;
42186;SDS011;27858;51.414;0.018;2023-01-04T11:58:39;9.52;;;3.03;;
42186;SDS011;27858;51.414;0.018;2023-01-04T12:01:21;17.67;;;3.83;;
42186;SDS011;27858;51.414;0.018;2023-01-04T12:03:49;10.45;;;2.80;;
42186;SDS011;27858;51.414;0.018;2023-01-04T12:06:21;10.15;;;2.75;;
42186;SDS011;27858;51.414;0.018;2023-01-04T12:08:57;8.63;;;2.00;;
42186;SDS011;27858;51.414;0.018;2023-01-04T12:11:28;6.40;;;2.72;;
42186;SDS011;27858;51.414;0.018;2023-01-04T12:14:01;15.85;;;3.30;;
42186;SDS011;27858;51.414;0.018;2023-01-04T12:19:21;10.98;;;3.00;;
42186;SDS011;27858;51.414;0.018;2023-01-04T12:21:50;7.88;;;2.38;;
42186;SDS011;27858;51.414;0.018;2023-01-04T12:24:23;10.88;;;2.63;;
42186;SDS011;27858;51.414;0.018;2023-01-04T12:26:53;12.18;;;2.70;;
42186;SDS011;27858;51.414;0.018;2023-01-04T12:34:44;16.80;;;4.40;;
42186;SDS011;27858;51.414;0.018;2023-01-04T12:40:50;16.38;;;2.65;;
42186;SDS011;27858;51.414;0.018;2023-01-04T12:45:47;9.60;;;2.45;;
42186;SDS011;27858;51.414;0.018;2023-01-04T12:48:57;10.88;;;2.38;;
42186;SDS011;27858;51.414;0.018;2023-01-04T12:51:30;10.75;;;3.30;;
42186;SDS011;27858;51.414;0.018;2023-01-04T12:54:00;22.58;;;3.58;;
42186;SDS011;27858;51.414;0.018;2023-01-04T12:59:38;10.23;;;2.05;;
42186;SDS011;27858;51.414;0.018;2023-01-04T13:07:50;12.05;;;2.95;;
42186;SDS011;27858;51.414;0.018;2023-01-04T13:16:05;11.35;;;2.78;;
42186;SDS011;27858;51.414;0.018;2023-01-04T13:19:03;10.95;;;3.03;;
42186;SDS011;27858;51.414;0.018;2023-01-04T13:21:45;10.70;;;2.72;;
42186;SDS011;27858;51.414;0.018;2023-01-04T13:26:49;14.07;;;3.85;;
42186;SDS011;27858;51.414;0.018;2023-01-04T13:32:01;12.93;;;3.10;;
42186;SDS011;27858;51.414;0.018;2023-01-04T13:34:55;15.35;;;3.67;;
42186;SDS011;27858;51.414;0.018;2023-01-04T13:37:45;8.30;;;3.72;;
42186;SDS011;27858;51.414;0.018;2023-01-04T13:42:51;8.88;;;2.83;;
42186;SDS011;27858;51.414;0.018;2023-01-04T13:48:32;16.58;;;2.97;;
42186;SDS011;27858;51.414;0.018;2023-01-04T13:51:03;10.17;;;3.40;;
42186;SDS011;27858;51.414;0.018;2023-01-04T13:53:39;16.25;;;3.35;;
42186;SDS011;27858;51.414;0.018;2023-01-04T13:56:13;18.42;;;2.90;;
42186;SDS011;27858;51.414;0.018;2023-01-04T13:58:44;13.38;;;3.95;;
42186;SDS011;27858;51.414;0.018;2023-01-04T14:01:12;13.77;;;4.22;;
42186;SDS011;27858;51.414;0.018;2023-01-04T14:03:53;13.75;;;4.43;;
42186;SDS011;27858;51.414;0.018;2023-01-04T14:06:34;9.90;;;3.13;;
42186;SDS011;27858;51.414;0.018;2023-01-04T14:17:34;10.73;;;3.40;;
42186;SDS011;27858;51.414;0.018;2023-01-04T14:22:53;12.18;;;3.50;;
42186;SDS011;27858;51.414;0.018;2023-01-04T14:30:45;18.33;;;3.80;;
42186;SDS011;27858;51.414;0.018;2023-01-04T14:36:23;20.77;;;4.38;;
42186;SDS011;27858;51.414;0.018;2023-01-04T14:44:26;23.92;;;4.80;;
42186;SDS011;27858;51.414;0.018;2023-01-04T14:46:59;17.23;;;3.55;;
42186;SDS011;27858;51.414;0.018;2023-01-04T14:49:31;13.98;;;4.50;;
42186;SDS011;27858;51.414;0.018;2023-01-04T14:52:02;14.73;;;3.78;;
42186;SDS011;27858;51.414;0.018;2023-01-04T14:54:34;12.10;;;3.63;;
42186;SDS011;27858;51.414;0.018;2023-01-04T14:57:04;17.67;;;4.53;;
42186;SDS011;27858;51.414;0.018;2023-01-04T14:59:30;16.70;;;4.75;;
42186;SDS011;27858;51.414;0.018;2023-01-04T15:01:57;9.50;;;2.47;;
42186;SDS011;27858;51.414;0.018;2023-01-04T15:04:24;17.85;;;3.58;;
42186;SDS011;27858;51.414;0.018;2023-01-04T15:06:53;15.60;;;3.50;;
42186;SDS011;27858;51.414;0.018;2023-01-04T15:09:24;9.77;;;3.92;;
42186;SDS011;27858;51.414;0.018;2023-01-04T15:11:51;13.82;;;3.03;;
42186;SDS011;27858;51.414;0.018;2023-01-04T15:14:19;12.43;;;3.35;;
42186;SDS011;27858;51.414;0.018;2023-01-04T15:16:47;17.63;;;3.97;;
42186;SDS011;27858;51.414;0.018;2023-01-04T15:19:14;9.10;;;3.40;;
42186;SDS011;27858;51.414;0.018;2023-01-04T15:21:41;18.92;;;3.28;;
42186;SDS011;27858;51.414;0.018;2023-01-04T15:24:08;12.45;;;4.03;;
42186;SDS011;27858;51.414;0.018;2023-01-04T15:26:36;11.40;;;3.17;;
42186;SDS011;27858;51.414;0.018;2023-01-04T15:29:04;12.10;;;3.22;;
42186;SDS011;27858;51.414;0.018;2023-01-04T15:31:32;12.32;;;3.75;;
42186;SDS011;27858;51.414;0.018;2023-01-04T15:34:04;7.10;;;2.03;;
42186;SDS011;27858;51.414;0.018;2023-01-04T15:36:31;11.38;;;2.05;;
42186;SDS011;27858;51.414;0.018;2023-01-04T15:38:57;16.67;;;3.60;;
42186;SDS011;27858;51.414;0.018;2023-01-04T15:41:24;9.82;;;3.47;;
42186;SDS011;27858;51.414;0.018;2023-01-04T15:44:10;16.98;;;3.20;;
42186;SDS011;27858;51.414;0.018;2023-01-04T15:46:37;18.75;;;3.40;;
42186;SDS011;27858;51.414;0.018;2023-01-04T15:49:04;7.13;;;2.67;;
42186;SDS011;27858;51.414;0.018;2023-01-04T15:51:35;14.75;;;4.50;;
42186;SDS011;27858;51.414;0.018;2023-01-04T15:54:02;14.77;;;3.97;;
42186;SDS011;27858;51.414;0.018;2023-01-04T15:56:29;16.60;;;3.45;;
42186;SDS011;27858;51.414;0.018;2023-01-04T15:58:56;12.82;;;3.10;;
42186;SDS011;27858;51.414;0.018;2023-01-04T16:01:23;8.25;;;2.53;;
42186;SDS011;27858;51.414;0.018;2023-01-04T16:03:49;8.77;;;2.55;;
42186;SDS011;27858;51.414;0.018;2023-01-04T16:06:19;13.23;;;3.10;;
42186;SDS011;27858;51.414;0.018;2023-01-04T16:08:46;13.18;;;3.05;;
42186;SDS011;27858;51.414;0.018;2023-01-04T16:11:16;16.73;;;3.15;;
42186;SDS011;27858;51.414;0.018;2023-01-04T16:13:45;9.40;;;2.65;;
42186;SDS011;27858;51.414;0.018;2023-01-04T16:16:13;13.80;;;2.92;;
42186;SDS011;27858;51.414;0.018;2023-01-04T16:18:47;24.63;;;5.15;;
42186;SDS011;27858;51.414;0.018;2023-01-04T16:21:15;12.13;;;3.45;;
42186;SDS011;27858;51.414;0.018;2023-01-04T16:23:49;18.23;;;3.88;;
42186;SDS011;27858;51.414;0.018;2023-01-04T16:26:17;12.25;;;3.35;;
42186;SDS011;27858;51.414;0.018;2023-01-04T16:28:51;12.60;;;3.38;;
42186;SDS011;27858;51.414;0.018;2023-01-04T16:31:20;19.65;;;4.15;;
42186;SDS011;27858;51.414;0.018;2023-01-04T16:33:51;8.52;;;3.92;;
42186;SDS011;27858;51.414;0.018;2023-01-04T16:36:18;3.95;;;1.92;;
42186;SDS011;27858;51.414;0.018;2023-01-04T16:38:45;8.85;;;2.58;;
42186;SDS011;27858;51.414;0.018;2023-01-04T16:41:13;5.97;;;3.13;;
42186;SDS011;27858;51.414;0.018;2023-01-04T16:43:42;10.30;;;3.25;;
42186;SDS011;27858;51.414;0.018;2023-01-04T16:46:13;13.90;;;3.08;;
42186;SDS011;27858;51.414;0.018;2023-01-04T16:48:46;13.05;;;2.85;;
42186;SDS011;27858;51.414;0.018;2023-01-04T16:51:15;13.57;;;3.97;;
42186;SDS011;27858;51.414;0.018;2023-01-04T16:53:42;11.52;;;3.80;;
42186;SDS011;27858;51.414;0.018;2023-01-04T16:56:10;12.00;;;3.83;;
42186;SDS011;27858;51.414;0.018;2023-01-04T16:58:39;11.30;;;2.83;;
42186;SDS011;27858;51.414;0.018;2023-01-04T17:01:16;10.38;;;2.58;;
42186;SDS011;27858;51.414;0.018;2023-01-04T17:03:45;12.52;;;2.72;;
42186;SDS011;27858;51.414;0.018;2023-01-04T17:06:14;11.35;;;3.75;;
42186;SDS011;27858;51.414;0.018;2023-01-04T17:08:43;10.05;;;3.53;;
42186;SDS011;27858;51.414;0.018;2023-01-04T17:11:13;18.60;;;4.28;;
42186;SDS011;27858;51.414;0.018;2023-01-04T17:14:10;12.30;;;3.65;;
42186;SDS011;27858;51.414;0.018;2023-01-04T17:16:38;11.20;;;3.28;;
42186;SDS011;27858;51.414;0.018;2023-01-04T17:19:06;7.07;;;2.47;;
42186;SDS011;27858;51.414;0.018;2023-01-04T17:21:32;12.88;;;2.80;;
42186;SDS011;27858;51.414;0.018;2023-01-04T17:24:01;17.25;;;3.70;;
42186;SDS011;27858;51.414;0.018;2023-01-04T17:26:29;14.60;;;3.75;;